sensor_id;sensor_type;location;lat;lon;timestamp;pressure;altitude;pressure_sealevel;temperature;humidity
61676;BME280;47574;52.090;5.244;2023-05-19T00:00:25;102758.0;;;16.23;47.28
61676;BME280;47574;52.090;5.244;2023-05-19T00:02:01;102757.0;;;16.36;47.08
61676;BME280;47574;52.090;5.244;2023-05-19T00:05:25;102758.0;;;16.37;47.02
61676;BME280;47574;52.090;5.244;2023-05-19T00:07:02;102757.0;;;16.3;47.15
61676;BME280;47574;52.090;5.244;2023-05-19T00:08:38;102755.0;;;16.21;47.38
61676;BME280;47574;52.090;5.244;2023-05-19T00:11:53;102750.0;;;16.2;47.41
61676;BME280;47574;52.090;5.244;2023-05-19T00:13:29;102749.0;;;16.31;47.15
61676;BME280;47574;52.090;5.244;2023-05-19T00:15:07;102742.0;;;16.21;47.33
61676;BME280;47574;52.090;5.244;2023-05-19T00:16:43;102742.0;;;16.2;47.4
61676;BME280;47574;52.090;5.244;2023-05-19T00:19:56;102741.00000000001;;;16.21;47.38
61676;BME280;47574;52.090;5.244;2023-05-19T00:21:32;102733.99999999999;;;16.18;47.47
61676;BME280;47574;52.090;5.244;2023-05-19T00:23:09;102733.99999999999;;;16.11;47.71
61676;BME280;47574;52.090;5.244;2023-05-19T00:26:22;102731.0;;;15.91;48.07
61676;BME280;47574;52.090;5.244;2023-05-19T00:27:58;102734.99999999999;;;15.89;48.24
61676;BME280;47574;52.090;5.244;2023-05-19T00:29:34;102733.99999999999;;;15.8;48.51
61676;BME280;47574;52.090;5.244;2023-05-19T00:32:47;102738.00000000001;;;15.77;48.53
61676;BME280;47574;52.090;5.244;2023-05-19T00:34:23;102732.0;;;15.82;48.48
61676;BME280;47574;52.090;5.244;2023-05-19T00:35:59;102736.99999999999;;;15.76;48.55
61676;BME280;47574;52.090;5.244;2023-05-19T00:37:35;102736.99999999999;;;15.87;48.32
61676;BME280;47574;52.090;5.244;2023-05-19T00:40:47;102730.0;;;15.72;48.68
61676;BME280;47574;52.090;5.244;2023-05-19T00:42:24;102732.0;;;15.74;48.62
61676;BME280;47574;52.090;5.244;2023-05-19T00:44:00;102740.00000000001;;;15.62;48.9
61676;BME280;47574;52.090;5.244;2023-05-19T00:47:12;102734.99999999999;;;15.7;48.88
61676;BME280;47574;52.090;5.244;2023-05-19T00:48:48;102736.99999999999;;;15.73;48.75
61676;BME280;47574;52.090;5.244;2023-05-19T00:50:25;102733.0;;;15.76;48.6
61676;BME280;47574;52.090;5.244;2023-05-19T00:53:41;102734.99999999999;;;15.71;48.75
61676;BME280;47574;52.090;5.244;2023-05-19T00:55:20;102739.00000000001;;;15.55;49.18
61676;BME280;47574;52.090;5.244;2023-05-19T00:56:58;102738.00000000001;;;15.6;49.06
61676;BME280;47574;52.090;5.244;2023-05-19T00:58:35;102734.99999999999;;;15.37;49.62
61676;BME280;47574;52.090;5.244;2023-05-19T01:01:50;102734.99999999999;;;15.35;49.76
61676;BME280;47574;52.090;5.244;2023-05-19T01:03:29;102736.99999999999;;;15.41;49.57
61676;BME280;47574;52.090;5.244;2023-05-19T01:05:06;102741.00000000001;;;15.31;49.63
61676;BME280;47574;52.090;5.244;2023-05-19T01:08:22;102738.00000000001;;;15.66;49.05
61676;BME280;47574;52.090;5.244;2023-05-19T01:09:58;102740.00000000001;;;15.49;49.49
61676;BME280;47574;52.090;5.244;2023-05-19T01:11:34;102742.0;;;15.51;49.47
61676;BME280;47574;52.090;5.244;2023-05-19T01:13:10;102742.0;;;15.47;49.57
61676;BME280;47574;52.090;5.244;2023-05-19T01:16:28;102736.99999999999;;;15.52;49.44
61676;BME280;47574;52.090;5.244;2023-05-19T01:18:11;102734.99999999999;;;15.48;49.66
61676;BME280;47574;52.090;5.244;2023-05-19T01:19:55;102739.00000000001;;;15.49;49.65
61676;BME280;47574;52.090;5.244;2023-05-19T01:23:19;102740.00000000001;;;15.58;49.45
61676;BME280;47574;52.090;5.244;2023-05-19T01:25:11;102730.0;;;15.73;49.1
61676;BME280;47574;52.090;5.244;2023-05-19T01:27:16;102733.0;;;15.46;49.58
61676;BME280;47574;52.090;5.244;2023-05-19T01:29:30;102732.0;;;15.45;49.66
61676;BME280;47574;52.090;5.244;2023-05-19T01:31:20;102731.0;;;15.42;49.75
61676;BME280;47574;52.090;5.244;2023-05-19T01:33:00;102727.0;;;15.51;49.61
61676;BME280;47574;52.090;5.244;2023-05-19T01:34:41;102725.0;;;15.3;50.06
61676;BME280;47574;52.090;5.244;2023-05-19T01:36:18;102724.0;;;15.19;50.27
61676;BME280;47574;52.090;5.244;2023-05-19T01:39:35;102725.0;;;15.12;50.56
61676;BME280;47574;52.090;5.244;2023-05-19T01:41:13;102719.0;;;15.12;50.65
61676;BME280;47574;52.090;5.244;2023-05-19T01:42:50;102719.0;;;15.21;50.49
61676;BME280;47574;52.090;5.244;2023-05-19T01:46:08;102718.0;;;15.1;50.67
61676;BME280;47574;52.090;5.244;2023-05-19T01:47:46;102720.0;;;15.15;50.69
61676;BME280;47574;52.090;5.244;2023-05-19T01:49:29;102719.0;;;15.2;50.6
61676;BME280;47574;52.090;5.244;2023-05-19T01:51:05;102715.00000000001;;;15.08;50.88
61676;BME280;47574;52.090;5.244;2023-05-19T01:54:17;102715.00000000001;;;15.22;50.44
61676;BME280;47574;52.090;5.244;2023-05-19T01:55:55;102718.0;;;15.0;50.88
61676;BME280;47574;52.090;5.244;2023-05-19T01:57:34;102714.00000000001;;;15.2;50.57
61676;BME280;47574;52.090;5.244;2023-05-19T01:59:31;102708.99999999999;;;15.22;50.54
61676;BME280;47574;52.090;5.244;2023-05-19T02:01:22;102707.0;;;15.11;50.85
61676;BME280;47574;52.090;5.244;2023-05-19T02:05:01;102711.99999999999;;;15.08;50.96
61676;BME280;47574;52.090;5.244;2023-05-19T02:06:49;102708.0;;;15.13;50.84
61676;BME280;47574;52.090;5.244;2023-05-19T02:08:37;102707.0;;;15.13;50.86
61676;BME280;47574;52.090;5.244;2023-05-19T02:10:28;102713.00000000001;;;15.16;50.78
61676;BME280;47574;52.090;5.244;2023-05-19T02:12:09;102711.99999999999;;;15.13;50.8
61676;BME280;47574;52.090;5.244;2023-05-19T02:13:55;102711.99999999999;;;15.08;51.04
61676;BME280;47574;52.090;5.244;2023-05-19T02:17:16;102713.00000000001;;;14.88;51.55
61676;BME280;47574;52.090;5.244;2023-05-19T02:18:55;102715.00000000001;;;14.98;51.3
61676;BME280;47574;52.090;5.244;2023-05-19T02:20:31;102713.00000000001;;;14.89;51.58
61676;BME280;47574;52.090;5.244;2023-05-19T02:23:43;102708.0;;;14.77;51.87
61676;BME280;47574;52.090;5.244;2023-05-19T02:25:19;102711.99999999999;;;14.79;51.82
61676;BME280;47574;52.090;5.244;2023-05-19T02:26:55;102708.99999999999;;;14.97;51.5
61676;BME280;47574;52.090;5.244;2023-05-19T02:28:32;102704.0;;;15.12;51.07
61676;BME280;47574;52.090;5.244;2023-05-19T02:31:45;102705.0;;;14.97;51.4
61676;BME280;47574;52.090;5.244;2023-05-19T02:33:21;102705.0;;;15.07;51.18
61676;BME280;47574;52.090;5.244;2023-05-19T02:34:57;102707.0;;;14.97;51.4
61676;BME280;47574;52.090;5.244;2023-05-19T02:38:11;102703.0;;;15.03;51.32
61676;BME280;47574;52.090;5.244;2023-05-19T02:39:47;102704.0;;;14.91;51.59
61676;BME280;47574;52.090;5.244;2023-05-19T02:41:23;102697.0;;;14.99;51.37
61676;BME280;47574;52.090;5.244;2023-05-19T02:44:35;102696.0;;;14.93;51.63
61676;BME280;47574;52.090;5.244;2023-05-19T02:46:12;102691.00000000001;;;14.96;51.52
61676;BME280;47574;52.090;5.244;2023-05-19T02:47:48;102690.00000000001;;;14.81;51.91
61676;BME280;47574;52.090;5.244;2023-05-19T02:49:24;102683.99999999999;;;14.93;51.71
61676;BME280;47574;52.090;5.244;2023-05-19T02:52:36;102681.0;;;15.01;51.51
61676;BME280;47574;52.090;5.244;2023-05-19T02:54:12;102683.99999999999;;;14.92;51.72
61676;BME280;47574;52.090;5.244;2023-05-19T02:55:49;102680.0;;;14.94;51.76
61676;BME280;47574;52.090;5.244;2023-05-19T02:59:01;102681.0;;;14.94;51.68
61676;BME280;47574;52.090;5.244;2023-05-19T03:00:37;102683.99999999999;;;14.79;52.09
61676;BME280;47574;52.090;5.244;2023-05-19T03:02:13;102676.0;;;15.02;51.51
61676;BME280;47574;52.090;5.244;2023-05-19T03:05:26;102680.0;;;14.86;51.95
61676;BME280;47574;52.090;5.244;2023-05-19T03:07:02;102673.0;;;15.03;51.55
61676;BME280;47574;52.090;5.244;2023-05-19T03:08:38;102670.0;;;14.79;52.17
61676;BME280;47574;52.090;5.244;2023-05-19T03:11:50;102672.0;;;14.76;52.33
61676;BME280;47574;52.090;5.244;2023-05-19T03:13:27;102673.0;;;14.74;52.31
61676;BME280;47574;52.090;5.244;2023-05-19T03:15:03;102667.0;;;14.81;52.21
61676;BME280;47574;52.090;5.244;2023-05-19T03:16:40;102669.0;;;14.85;52.13
61676;BME280;47574;52.090;5.244;2023-05-19T03:19:52;102674.0;;;14.76;52.35
61676;BME280;47574;52.090;5.244;2023-05-19T03:21:28;102674.0;;;14.76;52.38
61676;BME280;47574;52.090;5.244;2023-05-19T03:23:05;102674.0;;;14.55;52.87
61676;BME280;47574;52.090;5.244;2023-05-19T03:26:17;102678.0;;;14.7;52.56
61676;BME280;47574;52.090;5.244;2023-05-19T03:27:53;102676.0;;;14.82;52.33
61676;BME280;47574;52.090;5.244;2023-05-19T03:29:29;102678.0;;;14.76;52.44
61676;BME280;47574;52.090;5.244;2023-05-19T03:32:42;102682.0;;;14.7;52.58
61676;BME280;47574;52.090;5.244;2023-05-19T03:34:18;102680.0;;;14.74;52.39
61676;BME280;47574;52.090;5.244;2023-05-19T03:35:55;102675.0;;;14.68;52.6
61676;BME280;47574;52.090;5.244;2023-05-19T03:37:31;102675.0;;;14.68;52.56
61676;BME280;47574;52.090;5.244;2023-05-19T03:40:43;102673.0;;;14.75;52.47
61676;BME280;47574;52.090;5.244;2023-05-19T03:42:20;102669.0;;;14.58;52.94
61676;BME280;47574;52.090;5.244;2023-05-19T03:43:56;102667.0;;;14.58;52.91
61676;BME280;47574;52.090;5.244;2023-05-19T03:47:08;102667.0;;;14.57;53.02
61676;BME280;47574;52.090;5.244;2023-05-19T03:48:44;102666.00000000001;;;14.6;52.95
61676;BME280;47574;52.090;5.244;2023-05-19T03:50:21;102672.0;;;14.68;52.75
61676;BME280;47574;52.090;5.244;2023-05-19T03:53:33;102667.0;;;14.7;52.64
61676;BME280;47574;52.090;5.244;2023-05-19T03:55:09;102667.0;;;14.52;53.14
61676;BME280;47574;52.090;5.244;2023-05-19T03:56:45;102666.00000000001;;;14.58;52.82
61676;BME280;47574;52.090;5.244;2023-05-19T03:59:58;102668.0;;;14.62;52.84
61676;BME280;47574;52.090;5.244;2023-05-19T04:01:34;102667.0;;;14.7;52.65
61676;BME280;47574;52.090;5.244;2023-05-19T04:03:10;102669.0;;;14.63;52.83
61676;BME280;47574;52.090;5.244;2023-05-19T04:04:46;102672.0;;;14.41;53.41
61676;BME280;47574;52.090;5.244;2023-05-19T04:07:58;102670.0;;;14.4;53.41
61676;BME280;47574;52.090;5.244;2023-05-19T04:09:35;102667.0;;;14.36;53.59
61676;BME280;47574;52.090;5.244;2023-05-19T04:11:11;102669.0;;;14.49;53.19
61676;BME280;47574;52.090;5.244;2023-05-19T04:14:23;102667.0;;;14.49;53.32
61676;BME280;47574;52.090;5.244;2023-05-19T04:15:59;102671.0;;;14.34;53.66
61676;BME280;47574;52.090;5.244;2023-05-19T04:17:35;102672.0;;;14.49;53.38
61676;BME280;47574;52.090;5.244;2023-05-19T04:20:48;102677.0;;;14.62;52.97
61676;BME280;47574;52.090;5.244;2023-05-19T04:22:24;102675.0;;;14.33;53.75
61676;BME280;47574;52.090;5.244;2023-05-19T04:24:00;102676.0;;;14.53;53.43
61676;BME280;47574;52.090;5.244;2023-05-19T04:25:36;102676.0;;;14.54;53.36
61676;BME280;47574;52.090;5.244;2023-05-19T04:28:48;102677.0;;;14.72;52.98
61676;BME280;47574;52.090;5.244;2023-05-19T04:30:25;102680.0;;;14.58;53.35
61676;BME280;47574;52.090;5.244;2023-05-19T04:32:01;102683.99999999999;;;14.69;53.13
61676;BME280;47574;52.090;5.244;2023-05-19T04:35:13;102683.99999999999;;;14.5;53.56
61676;BME280;47574;52.090;5.244;2023-05-19T04:36:49;102683.99999999999;;;14.69;53.14
61676;BME280;47574;52.090;5.244;2023-05-19T04:38:25;102683.0;;;14.65;53.32
61676;BME280;47574;52.090;5.244;2023-05-19T04:41:38;102683.0;;;14.66;53.31
61676;BME280;47574;52.090;5.244;2023-05-19T04:43:14;102688.00000000001;;;14.76;53.14
61676;BME280;47574;52.090;5.244;2023-05-19T04:44:50;102689.00000000001;;;14.7;53.32
61676;BME280;47574;52.090;5.244;2023-05-19T04:48:03;102684.99999999999;;;14.75;53.21
61676;BME280;47574;52.090;5.244;2023-05-19T04:49:39;102690.00000000001;;;14.85;53.05
61676;BME280;47574;52.090;5.244;2023-05-19T04:51:15;102686.99999999999;;;14.85;53.15
61676;BME280;47574;52.090;5.244;2023-05-19T04:52:51;102689.00000000001;;;14.75;53.37
61676;BME280;47574;52.090;5.244;2023-05-19T04:56:04;102689.00000000001;;;14.9;53.11
61676;BME280;47574;52.090;5.244;2023-05-19T04:57:40;102689.00000000001;;;14.76;53.42
61676;BME280;47574;52.090;5.244;2023-05-19T04:59:16;102682.0;;;15.02;52.92
61676;BME280;47574;52.090;5.244;2023-05-19T05:02:29;102688.00000000001;;;14.87;53.27
61676;BME280;47574;52.090;5.244;2023-05-19T05:04:05;102684.99999999999;;;14.96;53.15
61676;BME280;47574;52.090;5.244;2023-05-19T05:05:41;102683.99999999999;;;14.91;53.29
61676;BME280;47574;52.090;5.244;2023-05-19T05:08:54;102683.0;;;14.96;53.13
61676;BME280;47574;52.090;5.244;2023-05-19T05:10:30;102686.99999999999;;;15.02;53.0
61676;BME280;47574;52.090;5.244;2023-05-19T05:12:07;102691.00000000001;;;15.01;53.09
61676;BME280;47574;52.090;5.244;2023-05-19T05:13:43;102691.00000000001;;;15.01;53.22
61676;BME280;47574;52.090;5.244;2023-05-19T05:16:58;102693.0;;;15.02;53.21
61676;BME280;47574;52.090;5.244;2023-05-19T05:18:34;102697.0;;;15.07;53.19
61676;BME280;47574;52.090;5.244;2023-05-19T05:20:12;102696.0;;;15.26;52.59
61676;BME280;47574;52.090;5.244;2023-05-19T05:23:24;102696.0;;;15.1;52.85
61676;BME280;47574;52.090;5.244;2023-05-19T05:25:01;102700.0;;;15.29;52.41
61676;BME280;47574;52.090;5.244;2023-05-19T05:26:39;102698.0;;;15.38;52.33
61676;BME280;47574;52.090;5.244;2023-05-19T05:29:51;102692.0;;;15.54;51.85
61676;BME280;47574;52.090;5.244;2023-05-19T05:31:27;102699.0;;;15.42;52.14
61676;BME280;47574;52.090;5.244;2023-05-19T05:33:03;102702.0;;;15.45;51.95
61676;BME280;47574;52.090;5.244;2023-05-19T05:34:39;102696.0;;;15.64;51.58
61676;BME280;47574;52.090;5.244;2023-05-19T05:37:52;102699.0;;;15.52;51.79
61676;BME280;47574;52.090;5.244;2023-05-19T05:39:28;102701.0;;;15.53;51.58
61676;BME280;47574;52.090;5.244;2023-05-19T05:41:04;102698.0;;;15.64;51.26
61676;BME280;47574;52.090;5.244;2023-05-19T05:44:16;102697.0;;;15.85;50.92
61676;BME280;47574;52.090;5.244;2023-05-19T05:45:53;102700.0;;;15.87;50.81
61676;BME280;47574;52.090;5.244;2023-05-19T05:47:29;102702.0;;;15.98;50.34
61676;BME280;47574;52.090;5.244;2023-05-19T05:50:42;102703.0;;;15.87;50.39
61676;BME280;47574;52.090;5.244;2023-05-19T05:52:20;102703.0;;;16.03;49.87
61676;BME280;47574;52.090;5.244;2023-05-19T05:53:57;102705.0;;;16.04;50.0
61676;BME280;47574;52.090;5.244;2023-05-19T05:55:35;102699.0;;;16.14;49.57
61676;BME280;47574;52.090;5.244;2023-05-19T05:58:47;102700.0;;;16.22;49.27
61676;BME280;47574;52.090;5.244;2023-05-19T06:00:23;102698.0;;;16.28;49.02
61676;BME280;47574;52.090;5.244;2023-05-19T06:02:00;102695.0;;;16.36;48.78
61676;BME280;47574;52.090;5.244;2023-05-19T06:05:13;102698.0;;;16.39;48.62
61676;BME280;47574;52.090;5.244;2023-05-19T06:06:49;102700.0;;;16.37;48.84
61676;BME280;47574;52.090;5.244;2023-05-19T06:08:25;102700.0;;;16.52;48.46
61676;BME280;47574;52.090;5.244;2023-05-19T06:11:37;102700.0;;;16.43;48.45
61676;BME280;47574;52.090;5.244;2023-05-19T06:13:14;102703.0;;;16.56;47.96
61676;BME280;47574;52.090;5.244;2023-05-19T06:14:50;102704.0;;;16.59;47.71
61676;BME280;47574;52.090;5.244;2023-05-19T06:18:02;102704.0;;;16.56;48.13
61676;BME280;47574;52.090;5.244;2023-05-19T06:19:38;102706.0;;;16.72;47.56
61676;BME280;47574;52.090;5.244;2023-05-19T06:21:14;102700.0;;;16.63;48.05
61676;BME280;47574;52.090;5.244;2023-05-19T06:22:51;102698.0;;;16.95;47.14
61676;BME280;47574;52.090;5.244;2023-05-19T06:26:03;102698.0;;;16.91;47.27
61676;BME280;47574;52.090;5.244;2023-05-19T06:27:39;102693.0;;;16.97;47.41
61676;BME280;47574;52.090;5.244;2023-05-19T06:29:16;102694.0;;;17.09;46.51
61676;BME280;47574;52.090;5.244;2023-05-19T06:32:29;102693.0;;;17.21;46.19
61676;BME280;47574;52.090;5.244;2023-05-19T06:34:05;102690.00000000001;;;16.88;46.88
61676;BME280;47574;52.090;5.244;2023-05-19T06:35:41;102691.00000000001;;;17.22;46.07
61676;BME280;47574;52.090;5.244;2023-05-19T06:38:53;102691.00000000001;;;17.36;45.74
61676;BME280;47574;52.090;5.244;2023-05-19T06:40:29;102690.00000000001;;;17.41;45.5
61676;BME280;47574;52.090;5.244;2023-05-19T06:42:06;102688.00000000001;;;17.41;45.25
61676;BME280;47574;52.090;5.244;2023-05-19T06:43:42;102689.00000000001;;;17.56;45.22
61676;BME280;47574;52.090;5.244;2023-05-19T06:46:54;102689.00000000001;;;17.7;44.8
61676;BME280;47574;52.090;5.244;2023-05-19T06:48:30;102686.99999999999;;;17.68;44.96
61676;BME280;47574;52.090;5.244;2023-05-19T06:50:07;102686.99999999999;;;17.72;44.9
61676;BME280;47574;52.090;5.244;2023-05-19T06:53:20;102690.00000000001;;;18.0;44.19
61676;BME280;47574;52.090;5.244;2023-05-19T06:54:56;102688.00000000001;;;18.09;44.07
61676;BME280;47574;52.090;5.244;2023-05-19T06:56:32;102689.00000000001;;;17.98;44.05
61676;BME280;47574;52.090;5.244;2023-05-19T06:59:45;102691.00000000001;;;17.88;43.98
61676;BME280;47574;52.090;5.244;2023-05-19T07:01:21;102693.0;;;17.86;43.78
61676;BME280;47574;52.090;5.244;2023-05-19T07:02:57;102696.0;;;18.04;43.59
61676;BME280;47574;52.090;5.244;2023-05-19T07:06:09;102697.0;;;18.25;43.2
61676;BME280;47574;52.090;5.244;2023-05-19T07:07:46;102694.0;;;18.27;43.14
61676;BME280;47574;52.090;5.244;2023-05-19T07:09:22;102693.0;;;18.43;43.06
61676;BME280;47574;52.090;5.244;2023-05-19T07:10:58;102695.0;;;18.37;43.23
61676;BME280;47574;52.090;5.244;2023-05-19T07:14:10;102691.00000000001;;;18.5;42.88
61676;BME280;47574;52.090;5.244;2023-05-19T07:15:46;102693.0;;;18.36;43.35
61676;BME280;47574;52.090;5.244;2023-05-19T07:17:23;102692.0;;;18.75;42.48
61676;BME280;47574;52.090;5.244;2023-05-19T07:20:35;102693.0;;;18.84;42.36
61676;BME280;47574;52.090;5.244;2023-05-19T07:22:11;102692.0;;;19.11;42.05
61676;BME280;47574;52.090;5.244;2023-05-19T07:23:47;102690.00000000001;;;19.11;41.89
61676;BME280;47574;52.090;5.244;2023-05-19T07:27:00;102691.00000000001;;;19.29;41.24
61676;BME280;47574;52.090;5.244;2023-05-19T07:28:36;102680.0;;;19.37;40.62
61676;BME280;47574;52.090;5.244;2023-05-19T07:30:12;102681.0;;;19.34;40.62
61676;BME280;47574;52.090;5.244;2023-05-19T07:31:48;102683.99999999999;;;19.5;40.33
61676;BME280;47574;52.090;5.244;2023-05-19T07:35:01;102688.00000000001;;;19.48;39.85
61676;BME280;47574;52.090;5.244;2023-05-19T07:36:37;102694.0;;;19.21;39.92
61676;BME280;47574;52.090;5.244;2023-05-19T07:38:13;102689.00000000001;;;19.43;38.92
61676;BME280;47574;52.090;5.244;2023-05-19T07:41:25;102686.99999999999;;;19.48;38.58
61676;BME280;47574;52.090;5.244;2023-05-19T07:43:02;102688.00000000001;;;19.7;38.58
61676;BME280;47574;52.090;5.244;2023-05-19T07:44:38;102683.99999999999;;;19.64;38.29
61676;BME280;47574;52.090;5.244;2023-05-19T07:47:52;102683.0;;;19.78;38.32
61676;BME280;47574;52.090;5.244;2023-05-19T07:49:28;102681.0;;;19.84;38.21
61676;BME280;47574;52.090;5.244;2023-05-19T07:51:04;102680.0;;;20.0;38.17
61676;BME280;47574;52.090;5.244;2023-05-19T07:54:17;102679.0;;;19.86;38.44
61676;BME280;47574;52.090;5.244;2023-05-19T07:55:53;102677.0;;;20.0;38.04
61676;BME280;47574;52.090;5.244;2023-05-19T07:57:29;102675.0;;;20.02;38.31
61676;BME280;47574;52.090;5.244;2023-05-19T07:59:05;102674.0;;;20.39;37.64
61676;BME280;47574;52.090;5.244;2023-05-19T08:02:18;102672.0;;;20.16;37.06
61676;BME280;47574;52.090;5.244;2023-05-19T08:03:54;102672.0;;;20.28;36.04
61676;BME280;47574;52.090;5.244;2023-05-19T08:05:30;102670.0;;;20.36;36.6
61676;BME280;47574;52.090;5.244;2023-05-19T08:08:42;102667.0;;;20.43;36.69
61676;BME280;47574;52.090;5.244;2023-05-19T08:10:19;102664.00000000001;;;20.47;36.12
61676;BME280;47574;52.090;5.244;2023-05-19T08:11:55;102663.00000000001;;;20.5;36.24
61676;BME280;47574;52.090;5.244;2023-05-19T08:15:08;102665.00000000001;;;20.53;36.14
61676;BME280;47574;52.090;5.244;2023-05-19T08:16:44;102661.99999999999;;;20.45;36.46
61676;BME280;47574;52.090;5.244;2023-05-19T08:18:20;102658.0;;;20.45;35.92
61676;BME280;47574;52.090;5.244;2023-05-19T08:19:57;102658.0;;;20.62;35.53
61676;BME280;47574;52.090;5.244;2023-05-19T08:23:09;102655.0;;;20.45;36.15
61676;BME280;47574;52.090;5.244;2023-05-19T08:24:45;102656.0;;;20.73;35.86
61676;BME280;47574;52.090;5.244;2023-05-19T08:26:21;102655.0;;;20.79;35.9
61676;BME280;47574;52.090;5.244;2023-05-19T08:29:34;102650.0;;;20.65;35.72
61676;BME280;47574;52.090;5.244;2023-05-19T08:31:10;102653.0;;;20.74;35.11
61676;BME280;47574;52.090;5.244;2023-05-19T08:32:45;102648.0;;;20.55;35.19
61676;BME280;47574;52.090;5.244;2023-05-19T08:35:57;102648.0;;;20.72;35.1
61676;BME280;47574;52.090;5.244;2023-05-19T08:37:34;102646.0;;;20.7;35.06
61676;BME280;47574;52.090;5.244;2023-05-19T08:39:11;102644.0;;;20.75;34.62
61676;BME280;47574;52.090;5.244;2023-05-19T08:42:23;102646.0;;;20.77;34.92
61676;BME280;47574;52.090;5.244;2023-05-19T08:43:59;102644.0;;;20.77;35.08
61676;BME280;47574;52.090;5.244;2023-05-19T08:45:35;102645.0;;;20.71;35.14
61676;BME280;47574;52.090;5.244;2023-05-19T08:47:14;102643.0;;;21.02;34.26
61676;BME280;47574;52.090;5.244;2023-05-19T08:50:37;102631.0;;;21.09;33.96
61676;BME280;47574;52.090;5.244;2023-05-19T08:52:21;102631.0;;;20.67;34.14
61676;BME280;47574;52.090;5.244;2023-05-19T08:54:11;102631.0;;;20.73;34.44
61676;BME280;47574;52.090;5.244;2023-05-19T08:55:57;102632.0;;;20.86;34.29
61676;BME280;47574;52.090;5.244;2023-05-19T08:57:39;102626.0;;;20.75;34.65
61676;BME280;47574;52.090;5.244;2023-05-19T09:00:55;102623.0;;;20.81;34.5
61676;BME280;47574;52.090;5.244;2023-05-19T09:02:32;102617.0;;;21.04;34.25
61676;BME280;47574;52.090;5.244;2023-05-19T09:04:10;102617.0;;;21.03;34.07
61676;BME280;47574;52.090;5.244;2023-05-19T09:07:23;102617.0;;;20.98;34.17
61676;BME280;47574;52.090;5.244;2023-05-19T09:09:00;102615.00000000001;;;21.12;34.03
61676;BME280;47574;52.090;5.244;2023-05-19T09:10:36;102616.00000000001;;;21.29;33.35
61676;BME280;47574;52.090;5.244;2023-05-19T09:12:13;102615.00000000001;;;21.09;33.15
61676;BME280;47574;52.090;5.244;2023-05-19T09:15:26;102614.00000000001;;;21.06;32.89
61676;BME280;47574;52.090;5.244;2023-05-19T09:17:02;102613.00000000001;;;21.35;32.46
61676;BME280;47574;52.090;5.244;2023-05-19T09:18:38;102614.00000000001;;;21.49;31.98
61676;BME280;47574;52.090;5.244;2023-05-19T09:21:57;102613.00000000001;;;21.38;31.44
61676;BME280;47574;52.090;5.244;2023-05-19T09:23:33;102608.99999999999;;;21.45;31.25
61676;BME280;47574;52.090;5.244;2023-05-19T09:25:17;102609.99999999999;;;21.6;30.8
61676;BME280;47574;52.090;5.244;2023-05-19T09:26:54;102606.0;;;21.51;30.34
61676;BME280;47574;52.090;5.244;2023-05-19T09:30:11;102604.0;;;21.64;29.82
61676;BME280;47574;52.090;5.244;2023-05-19T09:31:47;102608.0;;;21.65;29.82
61676;BME280;47574;52.090;5.244;2023-05-19T09:33:24;102609.99999999999;;;21.62;29.97
61676;BME280;47574;52.090;5.244;2023-05-19T09:36:38;102602.0;;;21.61;29.72
61676;BME280;47574;52.090;5.244;2023-05-19T09:38:16;102603.0;;;21.4;29.69
61676;BME280;47574;52.090;5.244;2023-05-19T09:39:53;102608.0;;;21.48;29.05
61676;BME280;47574;52.090;5.244;2023-05-19T09:43:06;102613.00000000001;;;21.75;28.95
61676;BME280;47574;52.090;5.244;2023-05-19T09:44:43;102608.99999999999;;;21.89;29.01
61676;BME280;47574;52.090;5.244;2023-05-19T09:46:23;102605.0;;;21.9;29.23
61676;BME280;47574;52.090;5.244;2023-05-19T09:48:02;102601.0;;;21.91;29.08
61676;BME280;47574;52.090;5.244;2023-05-19T09:51:22;102604.0;;;22.1;29.09
61676;BME280;47574;52.090;5.244;2023-05-19T09:52:59;102602.0;;;22.25;29.33
61676;BME280;47574;52.090;5.244;2023-05-19T09:54:36;102603.0;;;22.32;27.87
61676;BME280;47574;52.090;5.244;2023-05-19T09:56:14;102603.0;;;22.02;28.34
61676;BME280;47574;52.090;5.244;2023-05-19T09:59:31;102595.0;;;22.27;28.39
61676;BME280;47574;52.090;5.244;2023-05-19T10:01:08;102600.0;;;21.69;29.06
61676;BME280;47574;52.090;5.244;2023-05-19T10:02:45;102601.0;;;21.98;28.45
61676;BME280;47574;52.090;5.244;2023-05-19T10:06:00;102600.0;;;22.25;28.58
61676;BME280;47574;52.090;5.244;2023-05-19T10:07:39;102605.0;;;22.15;28.86
61676;BME280;47574;52.090;5.244;2023-05-19T10:09:16;102599.0;;;21.72;28.45
61676;BME280;47574;52.090;5.244;2023-05-19T10:10:52;102600.0;;;21.93;28.14
61676;BME280;47574;52.090;5.244;2023-05-19T10:14:06;102592.0;;;22.11;28.14
61676;BME280;47574;52.090;5.244;2023-05-19T10:15:43;102583.99999999999;;;22.39;27.9
61676;BME280;47574;52.090;5.244;2023-05-19T10:17:23;102582.0;;;22.55;27.92
61676;BME280;47574;52.090;5.244;2023-05-19T10:20:39;102592.0;;;22.19;28.16
61676;BME280;47574;52.090;5.244;2023-05-19T10:22:17;102595.0;;;22.28;28.82
61676;BME280;47574;52.090;5.244;2023-05-19T10:23:53;102595.0;;;22.06;28.89
61676;BME280;47574;52.090;5.244;2023-05-19T10:25:31;102594.0;;;21.9;29.45
61676;BME280;47574;52.090;5.244;2023-05-19T10:28:49;102586.99999999999;;;22.26;29.02
61676;BME280;47574;52.090;5.244;2023-05-19T10:30:28;102580.0;;;22.26;28.69
61676;BME280;47574;52.090;5.244;2023-05-19T10:32:10;102582.0;;;22.47;28.78
61676;BME280;47574;52.090;5.244;2023-05-19T10:34:02;102576.0;;;22.35;28.41
61676;BME280;47574;52.090;5.244;2023-05-19T10:36:08;102575.0;;;22.06;28.52